Time;durP1;ratioP1;P1;durP2;ratioP2;P2;SDS_P1;SDS_P2;PMS_P1;PMS_P2;Temp;Humidity;BMP_temperature;BMP_pressure;BME280_temperature;BME280_humidity;BME280_pressure;Samples;Min_cycle;Max_cycle;Signal;HPM_P1;HPM_P2
2023/07/17 00:00:05;;;;;;;4.68;2.80;;;;;;;25.17;43.88;101559.09;5032293;28;20049;-32
2023/07/17 00:02:33;;;;;;;6.07;3.00;;;;;;;25.15;43.74;101558.41;5043850;28;20053;-31
2023/07/17 00:04:59;;;;;;;6.70;3.22;;;;;;;25.15;43.79;101560.28;5041547;28;20053;-32
2023/07/17 00:07:26;;;;;;;6.35;3.08;;;;;;;25.13;44.10;101554.19;5031907;28;20445;-33
2023/07/17 00:09:53;;;;;;;5.78;3.25;;;;;;;25.11;43.95;101562.53;5034002;28;20053;-31
2023/07/17 00:12:20;;;;;;;5.85;2.75;;;;;;;25.08;44.03;101555.56;5033914;28;20129;-32
2023/07/17 00:14:47;;;;;;;5.68;2.63;;;;;;;25.08;43.53;101543.88;5035037;28;20144;-32
2023/07/17 00:17:14;;;;;;;5.57;2.60;;;;;;;25.06;44.09;101557.63;5035709;28;20052;-33
2023/07/17 00:19:41;;;;;;;5.57;2.70;;;;;;;25.05;43.58;101555.94;5036526;28;20085;-32
2023/07/17 00:22:08;;;;;;;6.47;2.90;;;;;;;25.03;43.82;101568.81;5034829;28;20452;-31
2023/07/17 00:24:34;;;;;;;4.93;2.38;;;;;;;25.02;43.53;101561.72;5034557;28;20052;-31
2023/07/17 00:27:01;;;;;;;5.30;2.20;;;;;;;25.01;43.54;101565.47;5034409;28;20091;-32
2023/07/17 00:29:28;;;;;;;7.05;2.53;;;;;;;25.00;43.45;101566.47;5027600;28;20129;-32
2023/07/17 00:31:56;;;;;;;5.30;2.50;;;;;;;25.00;43.60;101566.47;5032853;28;20144;-31
2023/07/17 00:34:23;;;;;;;5.28;2.92;;;;;;;24.99;43.49;101574.81;5032481;28;20050;-32
2023/07/17 00:36:50;;;;;;;9.25;2.80;;;;;;;24.98;43.73;101570.41;5037602;28;20056;-31
2023/07/17 00:39:19;;;;;;;4.10;2.03;;;;;;;24.97;43.69;101575.00;5033223;28;20498;-32
2023/07/17 00:41:49;;;;;;;5.50;2.70;;;;;;;24.97;43.86;101571.44;5035720;28;20049;-32
2023/07/17 00:44:15;;;;;;;7.13;2.67;;;;;;;24.95;44.00;101577.03;5035276;28;20105;-32
2023/07/17 00:46:43;;;;;;;5.38;2.50;;;;;;;24.94;43.67;101577.22;5035818;28;20111;-31
2023/07/17 00:49:11;;;;;;;7.00;2.63;;;;;;;24.94;43.92;101572.66;5036196;28;20051;-31
2023/07/17 00:51:40;;;;;;;4.50;2.22;;;;;;;24.93;43.46;101575.56;5035348;28;20041;-32
2023/07/17 00:54:08;;;;;;;5.15;2.20;;;;;;;24.91;43.84;101572.16;5033007;28;20046;-32
2023/07/17 00:56:34;;;;;;;4.28;2.10;;;;;;;24.90;43.46;101584.03;5031177;28;20073;-33
2023/07/17 00:59:02;;;;;;;5.50;2.45;;;;;;;24.88;43.95;101576.06;5034810;28;20049;-31
2023/07/17 01:01:28;;;;;;;3.58;1.73;;;;;;;24.87;43.89;101586.06;5031852;28;20052;-32
2023/07/17 01:03:57;;;;;;;4.15;2.25;;;;;;;24.86;44.08;101575.41;5031088;28;20073;-32
2023/07/17 01:06:27;;;;;;;5.07;2.15;;;;;;;24.85;43.92;101584.59;5035167;28;20060;-32
2023/07/17 01:08:54;;;;;;;3.97;1.92;;;;;;;24.85;43.88;101592.72;5035610;28;20353;-31
2023/07/17 01:11:20;;;;;;;4.07;1.90;;;;;;;24.84;43.92;101591.88;5034220;28;20075;-32
2023/07/17 01:13:49;;;;;;;2.92;1.55;;;;;;;24.83;43.49;101586.63;5033070;28;20058;-31
2023/07/17 01:16:16;;;;;;;4.15;1.90;;;;;;;24.81;43.94;101585.97;5031121;28;20053;-33
2023/07/17 01:18:43;;;;;;;2.92;1.60;;;;;;;24.79;44.08;101582.59;5034093;28;20056;-31
2023/07/17 01:21:13;;;;;;;6.28;1.80;;;;;;;24.79;43.50;101588.00;5031087;28;20056;-31
2023/07/17 01:23:40;;;;;;;4.60;1.73;;;;;;;24.77;43.93;101595.50;5031205;28;20076;-32
2023/07/17 01:26:14;;;;;;;4.30;1.52;;;;;;;24.75;44.03;101592.94;5031616;28;20050;-31
2023/07/17 01:28:42;;;;;;;3.65;1.60;;;;;;;24.75;43.85;101592.09;5037398;28;20119;-32
2023/07/17 01:31:09;;;;;;;3.55;1.60;;;;;;;24.73;43.58;101588.75;5040815;28;20541;-32
2023/07/17 01:33:36;;;;;;;5.35;1.88;;;;;;;24.72;43.78;101587.03;5040679;28;20049;-32
2023/07/17 01:36:04;;;;;;;2.60;1.40;;;;;;;24.71;44.04;101591.63;5035118;28;20499;-31
2023/07/17 01:38:33;;;;;;;2.67;2.00;;;;;;;24.71;43.55;101599.75;5038585;28;20083;-32
2023/07/17 01:40:59;;;;;;;4.22;1.50;;;;;;;24.70;43.36;101602.66;5033754;28;20472;-31
2023/07/17 01:43:26;;;;;;;5.07;2.33;;;;;;;24.68;43.49;101600.09;5037871;28;20462;-32
2023/07/17 01:45:53;;;;;;;4.50;1.52;;;;;;;24.68;43.89;101593.84;5032002;28;20107;-32
2023/07/17 01:48:19;;;;;;;3.35;1.63;;;;;;;24.65;43.58;101594.22;5042652;28;20093;-31
2023/07/17 01:50:47;;;;;;;2.83;1.35;;;;;;;24.65;43.88;101592.34;5039065;28;20111;-32
2023/07/17 01:53:18;;;;;;;3.85;1.58;;;;;;;24.62;43.95;101598.97;5038236;28;20055;-32
2023/07/17 01:55:46;;;;;;;3.22;1.40;;;;;;;24.63;43.52;101597.09;5035939;28;20387;-31
2023/07/17 01:58:13;;;;;;;3.85;1.40;;;;;;;24.61;43.86;101596.44;5042498;28;20140;-32
2023/07/17 02:00:39;;;;;;;3.95;1.50;;;;;;;24.60;43.78;101592.03;5036112;28;20616;-32
2023/07/17 02:03:06;;;;;;;3.58;1.30;;;;;;;24.59;43.85;101591.19;5035987;28;20076;-31
2023/07/17 02:05:33;;;;;;;3.90;1.55;;;;;;;24.58;44.18;101603.06;5036248;28;20140;-32
2023/07/17 02:07:59;;;;;;;4.15;1.92;;;;;;;24.57;43.68;101601.38;5030805;28;20049;-31
2023/07/17 02:10:26;;;;;;;4.03;1.92;;;;;;;24.56;43.97;101601.53;5029140;28;20080;-32
2023/07/17 02:12:52;;;;;;;4.03;1.80;;;;;;;24.55;43.97;101597.97;5030028;28;20049;-31
2023/07/17 02:15:19;;;;;;;3.00;1.30;;;;;;;24.54;43.53;101590.88;5029697;28;20076;-31
2023/07/17 02:17:46;;;;;;;4.03;1.45;;;;;;;24.53;44.41;101594.63;5031999;28;20045;-32
2023/07/17 02:20:13;;;;;;;2.20;1.30;;;;;;;24.52;44.05;101597.50;5031044;28;20450;-31
2023/07/17 02:22:41;;;;;;;3.25;1.65;;;;;;;24.52;44.32;101592.94;5030658;28;20119;-31
2023/07/17 02:25:08;;;;;;;4.53;1.52;;;;;;;24.51;43.78;101596.66;5033497;28;20077;-32
2023/07/17 02:27:35;;;;;;;2.97;1.35;;;;;;;24.50;44.38;101591.44;5032538;28;20184;-32
2023/07/17 02:30:03;;;;;;;3.63;1.40;;;;;;;24.49;43.87;101595.16;5030039;28;20052;-31
2023/07/17 02:32:30;;;;;;;3.40;1.45;;;;;;;24.49;44.09;101598.72;5029053;28;20041;-31
2023/07/17 02:34:57;;;;;;;4.90;2.05;;;;;;;24.48;43.91;101598.88;5029057;28;20088;-31
2023/07/17 02:37:24;;;;;;;2.17;1.30;;;;;;;24.48;44.18;101601.59;5030238;28;20077;-32
2023/07/17 02:39:51;;;;;;;4.95;1.60;;;;;;;24.46;44.13;101598.22;5029750;28;20045;-31
2023/07/17 02:42:17;;;;;;;3.30;1.48;;;;;;;24.45;43.84;101607.38;5031977;28;20072;-31
2023/07/17 02:44:45;;;;;;;4.78;1.38;;;;;;;24.45;44.43;101610.94;5031796;28;20100;-31
2023/07/17 02:47:11;;;;;;;5.78;1.83;;;;;;;24.43;43.94;101604.81;5031277;28;20053;-31
2023/07/17 02:49:38;;;;;;;3.97;1.40;;;;;;;24.45;43.79;101613.63;5029273;28;20077;-31
2023/07/17 02:52:06;;;;;;;4.75;1.65;;;;;;;24.43;44.22;101606.69;5029360;28;20053;-32
2023/07/17 02:54:37;;;;;;;3.40;1.40;;;;;;;24.41;43.97;101606.88;5032658;28;20054;-31
2023/07/17 02:57:05;;;;;;;3.47;1.50;;;;;;;24.41;44.14;101606.06;5034197;28;20061;-32
2023/07/17 02:59:32;;;;;;;5.03;1.40;;;;;;;24.38;43.84;101608.06;5030632;28;20099;-31
2023/07/17 03:01:59;;;;;;;2.35;1.25;;;;;;;24.37;44.08;101608.22;5035485;28;20048;-31
2023/07/17 03:04:26;;;;;;;2.67;1.50;;;;;;;24.37;44.02;101625.34;5038333;28;20049;-32
2023/07/17 03:06:52;;;;;;;5.47;1.30;;;;;;;24.36;43.93;101628.19;5034910;28;20055;-31
2023/07/17 03:09:19;;;;;;;2.85;1.20;;;;;;;24.36;43.90;101625.50;5033930;28;20099;-31
2023/07/17 03:11:46;;;;;;;4.13;0.95;;;;;;;24.36;44.25;101625.50;5036570;28;20080;-31
2023/07/17 03:14:12;;;;;;;2.70;1.30;;;;;;;24.34;43.82;101619.41;5033214;28;20136;-31
2023/07/17 03:16:39;;;;;;;3.53;1.30;;;;;;;24.33;44.23;101623.16;5036807;28;20102;-31
2023/07/17 03:19:06;;;;;;;2.85;1.42;;;;;;;24.32;44.57;101625.03;5032246;28;20414;-32
2023/07/17 03:21:32;;;;;;;3.72;1.45;;;;;;;24.32;44.37;101629.56;5034397;28;20329;-31
2023/07/17 03:24:03;;;;;;;3.65;1.23;;;;;;;24.31;44.16;101630.59;5037253;28;20068;-33
2023/07/17 03:26:29;;;;;;;3.08;1.67;;;;;;;24.30;44.26;101626.22;5030564;28;20054;-32
2023/07/17 03:28:57;;;;;;;3.75;1.35;;;;;;;24.29;44.02;101621.81;5033160;28;20061;-32
2023/07/17 03:31:23;;;;;;;4.25;1.50;;;;;;;24.28;44.59;101626.41;5032061;28;20052;-31
2023/07/17 03:33:50;;;;;;;3.70;1.30;;;;;;;24.27;44.12;101631.97;5037194;28;20042;-33
2023/07/17 03:36:17;;;;;;;5.43;1.48;;;;;;;24.26;44.36;101624.88;5040256;28;20099;-31
2023/07/17 03:38:44;;;;;;;4.65;1.45;;;;;;;24.25;44.36;101623.19;5040444;28;20046;-32
2023/07/17 03:41:10;;;;;;;5.25;2.03;;;;;;;24.23;44.00;101630.63;5038919;28;20096;-31
2023/07/17 03:43:37;;;;;;;3.13;1.27;;;;;;;24.23;44.27;101625.22;5039280;28;20053;-32
2023/07/17 03:46:03;;;;;;;4.28;1.40;;;;;;;24.22;44.48;101629.78;5041025;28;20089;-31
2023/07/17 03:48:30;;;;;;;3.75;1.63;;;;;;;24.22;44.23;101626.25;5036632;28;20073;-32
2023/07/17 03:50:57;;;;;;;5.05;1.75;;;;;;;24.20;44.37;101629.16;5037003;28;20059;-32
2023/07/17 03:53:28;;;;;;;3.22;1.52;;;;;;;24.20;44.10;101625.56;5036893;28;20048;-31
2023/07/17 03:55:55;;;;;;;4.85;2.00;;;;;;;24.20;44.28;101628.28;5037460;28;20132;-32
2023/07/17 03:58:22;;;;;;;4.32;1.60;;;;;;;24.18;44.18;101619.50;5034584;28;20048;-31
2023/07/17 04:00:48;;;;;;;3.20;1.75;;;;;;;24.18;44.47;101617.63;5034262;28;20160;-31
2023/07/17 04:03:15;;;;;;;4.32;1.50;;;;;;;24.18;44.39;101624.91;5034654;28;20061;-31
2023/07/17 04:05:43;;;;;;;5.85;1.70;;;;;;;24.17;44.16;101623.22;5031953;28;20119;-31
2023/07/17 04:08:10;;;;;;;4.43;1.50;;;;;;;24.17;44.05;101626.78;5032897;28;20476;-31
2023/07/17 04:10:36;;;;;;;4.07;1.65;;;;;;;24.17;44.06;101634.06;5031062;28;20111;-31
2023/07/17 04:13:03;;;;;;;3.35;1.50;;;;;;;24.16;44.34;101632.34;5028552;28;20111;-32
2023/07/17 04:15:30;;;;;;;4.13;1.80;;;;;;;24.16;44.08;101640.47;5030755;28;20049;-32
2023/07/17 04:17:57;;;;;;;3.00;1.63;;;;;;;24.17;44.43;101647.59;5030030;28;20081;-31
2023/07/17 04:20:23;;;;;;;4.82;2.05;;;;;;;24.16;44.52;101643.19;5031363;28;20053;-31
2023/07/17 04:22:50;;;;;;;2.80;1.67;;;;;;;24.16;44.09;101637.78;5032351;28;20099;-31
2023/07/17 04:25:17;;;;;;;5.13;2.53;;;;;;;24.16;44.25;101644.03;5029250;28;20148;-31
2023/07/17 04:27:43;;;;;;;6.55;2.67;;;;;;;24.17;44.26;101650.31;5028028;28;20049;-31
2023/07/17 04:30:10;;;;;;;5.72;2.38;;;;;;;24.15;44.50;101653.19;5033248;28;20144;-32
2023/07/17 04:32:37;;;;;;;5.13;2.17;;;;;;;24.17;44.77;101655.72;5036539;28;20076;-31
2023/07/17 04:35:04;;;;;;;7.75;2.40;;;;;;;24.17;44.87;101653.03;5032166;28;20049;-31
2023/07/17 04:37:30;;;;;;;6.57;2.35;;;;;;;24.18;44.29;101662.84;5035839;28;20080;-32
2023/07/17 04:39:57;;;;;;;6.18;2.33;;;;;;;24.17;44.00;101659.28;5034076;28;20140;-31
2023/07/17 04:42:23;;;;;;;3.95;2.45;;;;;;;24.19;44.16;101669.94;5029291;28;20418;-32
2023/07/17 04:44:50;;;;;;;5.18;1.95;;;;;;;24.18;44.59;101669.09;5034260;28;20049;-31
2023/07/17 04:47:16;;;;;;;6.07;2.40;;;;;;;24.18;44.17;101660.97;5031599;28;20061;-32
2023/07/17 04:49:43;;;;;;;6.40;2.42;;;;;;;24.18;44.21;101660.13;5035736;28;20083;-33
2023/07/17 04:52:10;;;;;;;7.05;2.50;;;;;;;24.18;44.16;101665.53;5032776;28;20056;-31
2023/07/17 04:54:36;;;;;;;3.83;2.28;;;;;;;24.19;44.01;101675.34;5034633;28;20053;-32
2023/07/17 04:57:03;;;;;;;5.70;2.45;;;;;;;24.19;44.10;101678.06;5035917;28;20501;-31
2023/07/17 04:59:30;;;;;;;4.80;2.28;;;;;;;24.17;44.35;101675.53;5036035;28;20131;-32
2023/07/17 05:01:56;;;;;;;5.78;2.28;;;;;;;24.18;44.46;101677.22;5033648;28;20191;-33
2023/07/17 05:04:23;;;;;;;5.03;2.33;;;;;;;24.17;44.99;101680.13;5034196;28;20499;-31
2023/07/17 05:06:49;;;;;;;5.85;2.42;;;;;;;24.18;44.11;101685.34;5037819;28;20368;-32
2023/07/17 05:09:16;;;;;;;4.55;2.10;;;;;;;24.18;44.59;101679.94;5033856;28;20075;-31
2023/07/17 05:11:44;;;;;;;4.43;2.40;;;;;;;24.19;44.21;101688.91;5034615;28;20434;-31
2023/07/17 05:14:11;;;;;;;5.32;2.65;;;;;;;24.19;44.17;101683.47;5032871;28;20141;-32
2023/07/17 05:16:39;;;;;;;4.38;2.25;;;;;;;24.21;44.64;101686.88;5036327;28;20087;-31
2023/07/17 05:19:06;;;;;;;3.95;2.20;;;;;;;24.21;44.52;101689.59;5034824;28;20079;-32
2023/07/17 05:21:33;;;;;;;6.47;2.67;;;;;;;24.23;44.13;101692.94;5031689;28;20049;-32
2023/07/17 05:23:59;;;;;;;6.50;2.65;;;;;;;24.23;44.48;101695.66;5033247;28;20104;-32
2023/07/17 05:26:26;;;;;;;5.53;2.83;;;;;;;24.23;44.20;101692.94;5028862;28;20566;-32
2023/07/17 05:28:53;;;;;;;4.38;2.22;;;;;;;24.23;44.30;101692.94;5035120;28;20050;-33
2023/07/17 05:31:21;;;;;;;4.93;2.60;;;;;;;24.24;44.60;101703.63;5033704;28;20073;-31
2023/07/17 05:33:49;;;;;;;7.88;2.90;;;;;;;24.25;44.90;101704.47;5033608;28;20060;-31
2023/07/17 05:36:16;;;;;;;6.65;2.47;;;;;;;24.26;44.23;101706.16;5033353;28;20523;-32
2023/07/17 05:38:43;;;;;;;5.78;2.50;;;;;;;24.27;44.70;101705.13;5033847;28;20056;-31
2023/07/17 05:41:09;;;;;;;4.85;2.50;;;;;;;24.27;44.61;101714.09;5030144;28;20060;-33
2023/07/17 05:43:36;;;;;;;7.97;3.17;;;;;;;24.27;44.39;101722.22;5027603;28;20094;-32
2023/07/17 05:46:03;;;;;;;7.55;2.55;;;;;;;24.29;44.53;101716.66;5034220;28;20049;-31
2023/07/17 05:48:29;;;;;;;8.32;3.03;;;;;;;24.30;44.66;101712.91;5036934;28;20151;-32
2023/07/17 05:50:56;;;;;;;8.55;3.58;;;;;;;24.31;44.47;101720.84;5037727;28;20054;-31
2023/07/17 05:53:23;;;;;;;8.52;3.80;;;;;;;24.32;44.38;101721.69;5036243;28;20140;-31
2023/07/17 05:55:52;;;;;;;8.15;3.53;;;;;;;24.33;44.49;101723.41;5034085;28;20103;-32
2023/07/17 05:58:18;;;;;;;6.93;3.15;;;;;;;24.35;44.51;101726.78;5041648;28;20057;-32
2023/07/17 06:00:45;;;;;;;5.30;2.75;;;;;;;24.37;44.36;101730.16;5034163;28;20053;-31
2023/07/17 06:03:12;;;;;;;9.38;3.33;;;;;;;24.38;43.76;101731.88;5031907;28;20089;-32
2023/07/17 06:05:39;;;;;;;5.30;3.20;;;;;;;24.37;44.59;101741.84;5030565;28;20041;-32
2023/07/17 06:08:06;;;;;;;7.00;3.15;;;;;;;24.39;44.12;101736.28;5028029;28;20133;-32
2023/07/17 06:10:32;;;;;;;5.65;3.38;;;;;;;24.37;44.00;101741.00;5029303;28;20210;-32
2023/07/17 06:12:59;;;;;;;5.75;3.20;;;;;;;24.37;43.98;101751.84;5027479;28;20077;-31
2023/07/17 06:15:26;;;;;;;8.15;3.60;;;;;;;24.36;44.06;101745.59;5028179;28;20368;-31
2023/07/17 06:17:53;;;;;;;7.93;3.60;;;;;;;24.36;44.74;101756.44;5031351;28;20393;-32
2023/07/17 06:20:23;;;;;;;9.00;4.15;;;;;;;24.36;44.40;101759.13;5029454;28;20129;-31
2023/07/17 06:22:49;;;;;;;10.05;3.78;;;;;;;24.35;44.54;101768.25;5030506;28;20080;-33
2023/07/17 06:25:16;;;;;;;9.05;3.63;;;;;;;24.35;44.37;101762.00;5029794;28;20132;-33
2023/07/17 06:27:43;;;;;;;8.95;4.00;;;;;;;24.36;44.45;101771.81;5026494;28;20081;-31
2023/07/17 06:30:10;;;;;;;6.85;3.63;;;;;;;24.36;44.50;101763.69;5030775;28;20402;-32
2023/07/17 06:32:37;;;;;;;7.25;3.08;;;;;;;24.36;44.22;101766.38;5032067;28;20045;-32
2023/07/17 06:35:05;;;;;;;9.50;3.90;;;;;;;24.36;44.13;101769.09;5032381;28;20049;-32
2023/07/17 06:37:32;;;;;;;5.55;3.40;;;;;;;24.35;44.34;101762.84;5030553;28;20156;-32
2023/07/17 06:39:59;;;;;;;7.43;4.25;;;;;;;24.36;44.51;101763.69;5030451;28;20045;-32
2023/07/17 06:42:25;;;;;;;7.15;3.80;;;;;;;24.35;44.27;101765.56;5032400;28;20053;-31
2023/07/17 06:44:52;;;;;;;7.05;4.13;;;;;;;24.37;44.31;101765.41;5030317;28;20080;-32
2023/07/17 06:47:19;;;;;;;7.85;4.25;;;;;;;24.37;44.42;101770.81;5034427;28;20057;-31
2023/07/17 06:50:02;;;;;;;7.90;3.72;;;;;;;24.36;44.47;101780.81;5031950;28;20103;-32
2023/07/17 06:52:29;;;;;;;9.32;4.20;;;;;;;24.38;44.14;101769.81;5028409;28;20054;-32
2023/07/17 06:54:55;;;;;;;8.90;4.15;;;;;;;24.36;44.16;101771.81;5027841;28;20111;-31
2023/07/17 06:57:31;;;;;;;7.82;3.78;;;;;;;24.37;44.80;101773.53;5030410;28;20341;-32
2023/07/17 06:59:58;;;;;;;8.77;3.50;;;;;;;24.37;44.29;101778.94;5029364;28;20046;-31
2023/07/17 07:02:24;;;;;;;7.50;3.97;;;;;;;24.37;44.22;101778.94;5028105;28;20171;-32
2023/07/17 07:04:51;;;;;;;7.55;3.75;;;;;;;24.38;44.47;101786.09;5026512;28;20053;-32
2023/07/17 07:07:18;;;;;;;7.68;4.03;;;;;;;24.38;44.01;101780.66;5027626;28;20057;-32
2023/07/17 07:09:45;;;;;;;9.35;3.55;;;;;;;24.38;44.16;101775.25;5027786;28;20054;-32
2023/07/17 07:12:13;;;;;;;6.38;3.90;;;;;;;24.38;44.38;101776.09;5031209;28;20137;-32
2023/07/17 07:14:40;;;;;;;8.20;4.15;;;;;;;24.40;44.53;101775.06;5035837;28;20045;-32
2023/07/17 07:17:07;;;;;;;8.45;4.28;;;;;;;24.39;44.25;101782.34;5034065;28;20132;-32
2023/07/17 07:19:34;;;;;;;9.43;3.53;;;;;;;24.41;44.76;101784.91;5039408;28;20053;-30
2023/07/17 07:22:01;;;;;;;6.20;3.63;;;;;;;24.40;44.13;101792.16;5033643;28;20053;-30
2023/07/17 07:24:28;;;;;;;7.93;3.50;;;;;;;24.40;44.05;101785.91;5031582;28;20137;-30
2023/07/17 07:26:54;;;;;;;8.88;3.75;;;;;;;24.40;44.73;101799.44;5029414;28;20053;-31
2023/07/17 07:29:21;;;;;;;8.55;3.90;;;;;;;24.40;44.71;101799.44;5037665;28;20079;-33
2023/07/17 07:31:48;;;;;;;10.43;4.35;;;;;;;24.40;44.75;101804.88;5033148;28;20057;-33
2023/07/17 07:34:15;;;;;;;6.15;3.63;;;;;;;24.39;44.84;101806.72;5038660;28;20045;-30
2023/07/17 07:36:41;;;;;;;8.95;3.58;;;;;;;24.40;44.34;101813.84;5032376;28;20049;-30
2023/07/17 07:39:08;;;;;;;5.88;3.60;;;;;;;24.42;44.95;101811.81;5037382;28;20041;-30
2023/07/17 07:41:35;;;;;;;6.72;3.50;;;;;;;24.43;44.10;101810.78;5032140;28;20045;-34
2023/07/17 07:44:02;;;;;;;6.32;3.60;;;;;;;24.43;44.41;101818.91;5040093;28;20099;-32
2023/07/17 07:46:29;;;;;;;9.45;3.90;;;;;;;24.44;44.47;101817.91;5033582;28;20056;-33
2023/07/17 07:48:55;;;;;;;7.00;3.45;;;;;;;24.45;44.28;101824.19;5037294;28;20296;-33
2023/07/17 07:51:22;;;;;;;8.95;3.58;;;;;;;24.44;44.41;101820.59;5034902;28;20106;-32
2023/07/17 07:53:49;;;;;;;7.55;3.88;;;;;;;24.45;43.90;101819.59;5037327;28;20045;-33
2023/07/17 07:56:15;;;;;;;6.55;3.17;;;;;;;24.47;44.24;101822.13;5029703;28;20096;-33
2023/07/17 07:58:43;;;;;;;7.32;3.78;;;;;;;24.48;44.68;101823.81;5033758;28;20056;-32
2023/07/17 08:01:09;;;;;;;9.50;3.92;;;;;;;24.50;44.04;101821.78;5028603;28;20421;-33
2023/07/17 08:03:37;;;;;;;5.57;3.03;;;;;;;24.52;44.26;101831.47;5025624;28;20037;-33
2023/07/17 08:06:04;;;;;;;7.82;4.10;;;;;;;24.53;44.15;101835.84;5027291;28;20053;-32
2023/07/17 08:08:31;;;;;;;7.65;4.20;;;;;;;24.55;44.42;101832.97;5028690;28;20099;-33
2023/07/17 08:10:58;;;;;;;6.55;3.95;;;;;;;24.55;44.25;101839.22;5023131;28;20437;-32
2023/07/17 08:13:24;;;;;;;8.43;3.70;;;;;;;24.56;44.53;101838.22;5027196;28;20084;-33
2023/07/17 08:15:51;;;;;;;5.35;3.28;;;;;;;24.58;44.66;101847.00;5028326;28;20132;-33
2023/07/17 08:18:18;;;;;;;5.57;3.55;;;;;;;24.59;44.30;101843.28;5028233;28;20046;-33
2023/07/17 08:20:44;;;;;;;6.68;3.15;;;;;;;24.61;44.05;101846.69;5027682;28;20085;-33
2023/07/17 08:23:11;;;;;;;6.80;3.42;;;;;;;24.62;44.27;101859.19;5029941;28;20099;-33
2023/07/17 08:25:38;;;;;;;6.05;2.83;;;;;;;24.63;43.79;101855.47;5033449;28;20702;-33
2023/07/17 08:28:05;;;;;;;5.88;3.38;;;;;;;24.66;44.12;101861.56;5030583;28;20060;-33
2023/07/17 08:30:31;;;;;;;6.78;3.25;;;;;;;24.66;44.38;101842.59;5034786;28;20089;-32
2023/07/17 08:32:58;;;;;;;10.60;3.90;;;;;;;24.69;44.26;101847.69;5030202;28;20103;-33
2023/07/17 08:35:25;;;;;;;5.43;3.22;;;;;;;24.70;43.97;101857.50;5030427;28;20049;-32
2023/07/17 08:37:52;;;;;;;4.97;3.35;;;;;;;24.71;44.28;101857.31;5029561;28;20200;-32
2023/07/17 08:40:18;;;;;;;5.85;3.17;;;;;;;24.72;44.29;101853.56;5036494;28;20372;-33
2023/07/17 08:42:46;;;;;;;7.32;3.83;;;;;;;24.74;44.13;101861.56;5037526;28;20053;-33
2023/07/17 08:45:14;;;;;;;5.72;2.85;;;;;;;24.76;43.73;101864.91;5036614;28;20041;-33
2023/07/17 08:47:41;;;;;;;5.40;3.03;;;;;;;24.78;43.92;101868.31;5037982;28;20335;-32
2023/07/17 08:50:11;;;;;;;5.95;3.30;;;;;;;24.79;44.24;101867.28;5038245;28;20053;-32
2023/07/17 08:52:38;;;;;;;5.95;2.97;;;;;;;24.81;44.24;101867.97;5039963;28;20108;-33
2023/07/17 08:55:05;;;;;;;6.35;3.38;;;;;;;24.82;43.66;101861.53;5037464;28;20042;-32
2023/07/17 08:57:34;;;;;;;8.38;3.67;;;;;;;24.82;44.03;101867.78;5033759;28;20076;-33
2023/07/17 09:00:01;;;;;;;6.55;3.85;;;;;;;24.84;44.05;101878.47;5037976;28;20049;-33
2023/07/17 09:02:27;;;;;;;4.82;2.45;;;;;;;24.84;44.02;101862.19;5038693;28;20045;-32
2023/07/17 09:04:54;;;;;;;5.97;2.75;;;;;;;24.86;43.75;101877.28;5042022;28;20115;-32
2023/07/17 09:07:21;;;;;;;7.85;2.80;;;;;;;24.87;43.84;101859.13;5040355;28;20041;-33
2023/07/17 09:10:14;;;;;;;5.85;2.90;;;;;;;24.87;43.94;101857.25;5035679;28;20049;-32
2023/07/17 09:12:49;;;;;;;4.55;2.58;;;;;;;24.91;43.59;101856.91;5036729;28;20093;-32
2023/07/17 09:15:16;;;;;;;5.60;2.58;;;;;;;24.92;43.45;101867.59;5037152;28;20664;-31
2023/07/17 09:17:43;;;;;;;6.43;2.53;;;;;;;24.94;43.93;101864.72;5035214;28;20049;-32
2023/07/17 09:20:11;;;;;;;3.90;2.05;;;;;;;24.95;43.58;101867.25;5037293;28;20092;-32
2023/07/17 09:22:38;;;;;;;4.63;2.47;;;;;;;24.97;43.80;101875.22;5039658;28;20053;-32
2023/07/17 09:25:06;;;;;;;4.78;2.65;;;;;;;24.96;43.31;101885.19;5035589;28;20050;-32
2023/07/17 09:27:47;;;;;;;5.15;2.25;;;;;;;24.96;43.30;101881.66;5030674;28;20083;-32
2023/07/17 09:30:16;;;;;;;3.97;2.20;;;;;;;24.98;43.56;101887.75;5033187;28;20048;-32
2023/07/17 09:32:44;;;;;;;4.28;1.95;;;;;;;25.00;43.57;101881.13;5029420;28;20063;-32
2023/07/17 09:35:12;;;;;;;4.75;2.25;;;;;;;25.02;43.48;101891.81;5033687;28;20043;-32
2023/07/17 09:37:41;;;;;;;5.65;2.33;;;;;;;25.02;42.91;101876.38;5033547;28;20099;-33
2023/07/17 09:40:12;;;;;;;9.00;2.45;;;;;;;25.02;43.22;101884.53;5034022;28;20076;-32
2023/07/17 09:42:42;;;;;;;5.28;2.10;;;;;;;25.02;43.03;101887.22;5034604;28;20049;-33
2023/07/17 09:45:11;;;;;;;4.18;2.13;;;;;;;25.03;42.86;101888.91;5032760;28;20476;-32
2023/07/17 09:47:39;;;;;;;6.22;2.42;;;;;;;25.05;42.97;101895.03;5029108;28;20080;-33
2023/07/17 09:50:09;;;;;;;6.13;2.38;;;;;;;25.06;43.11;101893.16;5030589;28;20041;-32
2023/07/17 09:52:35;;;;;;;5.68;2.67;;;;;;;25.05;43.20;101894.19;5031336;28;20041;-32
2023/07/17 09:55:03;;;;;;;5.93;1.90;;;;;;;25.04;43.01;101895.19;5034102;28;20123;-33
2023/07/17 09:57:33;;;;;;;5.75;2.28;;;;;;;25.04;43.15;101901.44;5032388;28;20388;-32
2023/07/17 10:00:12;;;;;;;5.32;2.17;;;;;;;25.04;43.80;101904.16;5026088;28;20064;-32
2023/07/17 10:02:41;;;;;;;6.63;2.33;;;;;;;25.05;43.74;101911.31;5034656;28;20053;-32
2023/07/17 10:05:08;;;;;;;5.82;2.40;;;;;;;25.08;43.60;101896.53;5028994;28;20045;-33
2023/07/17 10:07:41;;;;;;;5.22;2.15;;;;;;;25.10;43.78;101906.22;5029747;28;20042;-32
2023/07/17 10:10:10;;;;;;;4.15;2.40;;;;;;;25.15;43.53;101910.28;5029364;28;20454;-33
2023/07/17 10:12:38;;;;;;;6.07;2.33;;;;;;;25.18;43.73;101913.50;5032247;28;20432;-33
2023/07/17 10:15:06;;;;;;;4.80;2.30;;;;;;;25.21;43.04;101909.59;5032274;28;20080;-32
2023/07/17 10:17:34;;;;;;;6.07;2.20;;;;;;;25.24;43.21;101912.78;5030219;28;20045;-32
2023/07/17 10:20:09;;;;;;;8.45;2.60;;;;;;;25.26;43.29;101908.03;5030185;28;20072;-32
2023/07/17 10:22:44;;;;;;;5.45;2.05;;;;;;;25.32;43.54;101911.91;5030995;28;20459;-32
2023/07/17 10:25:17;;;;;;;5.07;2.38;;;;;;;25.35;42.98;101906.97;5034287;28;20077;-32
2023/07/17 10:27:47;;;;;;;7.57;2.38;;;;;;;25.37;43.30;101917.66;5031364;28;20056;-32
2023/07/17 10:30:33;;;;;;;4.85;1.90;;;;;;;25.38;43.38;101918.50;5029202;28;20080;-32
2023/07/17 10:33:16;;;;;;;5.97;1.75;;;;;;;25.39;43.46;101917.47;5028947;28;20099;-33
2023/07/17 10:36:00;;;;;;;4.68;2.20;;;;;;;25.39;43.12;101917.47;5030699;28;20464;-32
2023/07/17 10:38:29;;;;;;;6.28;1.70;;;;;;;25.39;43.36;101918.31;5031934;28;20330;-32
2023/07/17 10:41:14;;;;;;;3.50;1.80;;;;;;;25.38;43.51;101930.19;5029408;28;20084;-32
2023/07/17 10:43:57;;;;;;;4.60;1.95;;;;;;;25.38;43.42;101929.38;5031185;28;20053;-32
2023/07/17 10:46:44;;;;;;;5.80;1.83;;;;;;;25.38;43.86;101924.78;5034268;28;20064;-32
2023/07/17 10:49:13;;;;;;;5.25;1.80;;;;;;;25.37;43.70;101923.09;5035307;28;20053;-34
2023/07/17 10:51:48;;;;;;;5.35;2.30;;;;;;;25.36;43.42;101926.81;5034446;28;20892;-32
2023/07/17 10:54:16;;;;;;;3.95;1.95;;;;;;;25.35;43.58;101933.25;5036440;28;20073;-32
2023/07/17 10:56:45;;;;;;;3.80;2.05;;;;;;;25.34;43.35;101939.72;5036014;28;20054;-32
2023/07/17 10:59:14;;;;;;;5.18;2.30;;;;;;;25.33;43.61;101938.03;5028179;28;20045;-33
2023/07/17 11:01:40;;;;;;;5.10;2.05;;;;;;;25.34;43.64;101939.72;5032018;28;20443;-33
2023/07/17 11:04:07;;;;;;;5.45;2.00;;;;;;;25.34;43.74;101928.88;5029736;28;20041;-33
2023/07/17 11:06:34;;;;;;;5.00;2.40;;;;;;;25.36;43.67;101924.09;5032919;28;20041;-33
2023/07/17 11:09:02;;;;;;;5.18;1.98;;;;;;;25.39;43.51;101934.59;5032195;28;20422;-32
2023/07/17 11:11:31;;;;;;;5.38;2.35;;;;;;;25.39;43.26;101936.47;5032423;28;20135;-32
2023/07/17 11:13:59;;;;;;;7.75;2.30;;;;;;;25.40;43.25;101930.03;5032388;28;20098;-33
2023/07/17 11:16:26;;;;;;;6.45;2.35;;;;;;;25.41;43.11;101939.84;5032409;28;20425;-33
2023/07/17 11:18:55;;;;;;;4.03;2.13;;;;;;;25.42;43.56;101934.25;5031261;28;20081;-32
2023/07/17 11:21:24;;;;;;;8.23;2.20;;;;;;;25.44;43.42;101939.50;5030321;28;20394;-33
2023/07/17 11:23:53;;;;;;;6.70;2.03;;;;;;;25.48;43.35;101935.41;5029214;28;20057;-33
2023/07/17 11:26:23;;;;;;;5.10;1.70;;;;;;;25.50;43.03;101931.50;5028727;28;20053;-33